createdAt,value
2023-03-20T00:02:53.895Z,57.52
2023-03-20T00:06:20.770Z,59.41
2023-03-20T00:09:29.367Z,60.42
2023-03-20T00:12:37.548Z,60.85
2023-03-20T00:15:54.854Z,61.37
2023-03-20T00:19:16.489Z,64.10
2023-03-20T00:22:24.477Z,72.12
2023-03-20T00:25:33.048Z,69.57
2023-03-20T00:28:58.743Z,66.51
2023-03-20T00:32:17.247Z,65.41
2023-03-20T00:35:25.203Z,64.18
2023-03-20T00:38:30.983Z,62.36
2023-03-20T00:41:52.836Z,60.54
2023-03-20T00:45:01.061Z,58.92
2023-03-20T00:48:07.898Z,57.09
2023-03-20T00:51:13.517Z,58.71
2023-03-20T00:54:32.024Z,60.46
2023-03-20T00:57:42.225Z,64.38
2023-03-20T01:00:50.331Z,68.56
2023-03-20T01:04:10.850Z,66.27
2023-03-20T01:07:36.712Z,63.63
2023-03-20T01:11:02.371Z,61.82
2023-03-20T01:14:14.662Z,60.66
2023-03-20T01:17:38.981Z,59.73
2023-03-20T01:21:05.093Z,57.86
2023-03-20T01:24:31.003Z,60.22
2023-03-20T01:27:36.362Z,61.90
2023-03-20T01:30:52.725Z,65.75
2023-03-20T01:33:58.772Z,68.51
2023-03-20T01:37:18.476Z,65.52
2023-03-20T01:40:49.104Z,63.31
2023-03-20T01:44:18.212Z,61.54
2023-03-20T01:47:29.858Z,60.24
2023-03-20T01:50:55.817Z,57.82
2023-03-20T01:54:08.529Z,58.22
2023-03-20T01:57:27.015Z,60.93
2023-03-20T02:00:33.286Z,66.41
2023-03-20T02:03:59.051Z,67.95
2023-03-20T02:07:19.838Z,64.95
2023-03-20T02:10:46.551Z,61.36
2023-03-20T02:14:05.282Z,59.61
2023-03-20T02:17:20.305Z,56.74
2023-03-20T02:20:51.776Z,57.97
2023-03-20T02:24:16.211Z,59.63
2023-03-20T02:27:45.827Z,59.64
2023-03-20T02:31:06.949Z,60.12
2023-03-20T02:34:33.847Z,60.62
2023-03-20T02:37:48.968Z,59.58
2023-03-20T02:41:14.760Z,59.30
2023-03-20T02:44:30.336Z,59.15
2023-03-20T02:47:48.697Z,59.25
2023-03-20T02:51:10.634Z,59.75
2023-03-20T02:54:40.604Z,61.09
2023-03-20T02:57:52.910Z,61.90
2023-03-20T03:01:04.768Z,72.85
2023-03-20T03:04:23.127Z,78.45
2023-03-20T03:07:41.692Z,76.42
2023-03-20T03:10:51.034Z,72.99
2023-03-20T03:13:59.870Z,70.29
2023-03-20T03:17:07.622Z,68.19
2023-03-20T03:20:28.057Z,66.46
2023-03-20T03:23:37.407Z,65.02
2023-03-20T03:26:53.754Z,63.56
2023-03-20T03:30:12.970Z,62.41
2023-03-20T03:33:29.488Z,61.45
2023-03-20T03:36:40.101Z,60.66
2023-03-20T03:39:51.087Z,59.95
2023-03-20T03:43:02.992Z,58.37
2023-03-20T03:46:21.210Z,59.25
2023-03-20T03:49:34.008Z,61.68
2023-03-20T03:52:40.315Z,66.32
2023-03-20T03:55:59.177Z,67.64
2023-03-20T03:59:07.116Z,64.80
2023-03-20T04:02:16.290Z,63.37
2023-03-20T04:05:22.657Z,59.11
2023-03-20T04:08:28.468Z,61.86
2023-03-20T04:11:37.881Z,67.29
2023-03-20T04:15:03.281Z,67.57
2023-03-20T04:18:15.675Z,65.16
2023-03-20T04:21:27.066Z,63.34
2023-03-20T04:24:37.380Z,61.90
2023-03-20T04:27:47.529Z,61.21
2023-03-20T04:31:15.911Z,60.67
2023-03-20T04:34:33.746Z,60.06
2023-03-20T04:37:47.723Z,58.58
2023-03-20T04:40:55.685Z,59.99
2023-03-20T04:44:01.252Z,64.55
2023-03-20T04:47:07.159Z,67.85
2023-03-20T04:50:16.678Z,66.00
2023-03-20T04:53:29.649Z,64.24
2023-03-20T04:56:38.131Z,63.62
2023-03-20T04:59:51.501Z,62.83
2023-03-20T05:02:59.300Z,61.84
2023-03-20T05:06:24.975Z,61.27
2023-03-20T05:09:35.346Z,60.74
2023-03-20T05:12:42.757Z,60.16
2023-03-20T05:16:26.777Z,59.47
2023-03-20T05:20:05.281Z,58.09
2023-03-20T05:23:18.316Z,59.84
2023-03-20T05:26:43.720Z,61.46
2023-03-20T05:30:08.293Z,65.88
2023-03-20T05:33:31.850Z,69.52
2023-03-20T05:37:03.564Z,67.02
2023-03-20T05:40:35.498Z,65.33
2023-03-20T05:44:07.016Z,63.98
2023-03-20T05:47:26.138Z,62.45
2023-03-20T05:50:54.820Z,61.54
2023-03-20T05:54:29.341Z,61.19
2023-03-20T05:58:01.277Z,60.72
2023-03-20T06:01:37.814Z,60.17
2023-03-20T06:05:06.620Z,59.73
2023-03-20T06:08:27.056Z,58.35
2023-03-20T06:11:37.799Z,58.41
2023-03-20T06:14:44.546Z,59.90
2023-03-20T06:17:50.441Z,61.62
2023-03-20T06:20:58.852Z,68.19
2023-03-20T06:24:22.169Z,67.59
2023-03-20T06:27:27.817Z,64.95
2023-03-20T06:30:33.555Z,63.14
2023-03-20T06:33:42.069Z,62.01
2023-03-20T06:36:49.935Z,60.99
2023-03-20T06:39:58.735Z,60.13
2023-03-20T06:43:04.887Z,59.69
2023-03-20T06:46:22.010Z,57.95
2023-03-20T06:49:27.916Z,58.64
2023-03-20T06:52:34.287Z,61.06
2023-03-20T06:56:10.085Z,61.03
2023-03-20T06:59:36.703Z,61.67
2023-03-20T07:03:02.498Z,61.73
2023-03-20T07:06:18.483Z,61.85
2023-03-20T07:09:24.453Z,62.06
2023-03-20T07:12:37.722Z,65.66
2023-03-20T07:15:57.477Z,74.33
2023-03-20T07:19:14.176Z,72.79
2023-03-20T07:22:24.418Z,69.59
2023-03-20T07:25:50.360Z,67.00
2023-03-20T07:28:59.124Z,64.83
2023-03-20T07:32:05.249Z,63.18
2023-03-20T07:35:17.183Z,61.73
2023-03-20T07:38:24.146Z,60.80
2023-03-20T07:41:41.655Z,60.21
2023-03-20T07:45:09.441Z,57.25
2023-03-20T07:48:17.358Z,56.94
2023-03-20T07:51:33.175Z,58.28
2023-03-20T07:54:38.595Z,59.58
2023-03-20T07:57:44.211Z,64.22
2023-03-20T08:00:50.768Z,67.83
2023-03-20T08:03:56.926Z,65.64
2023-03-20T08:07:02.616Z,63.35
2023-03-20T08:10:11.195Z,61.03
2023-03-20T08:13:16.964Z,58.68
2023-03-20T08:16:22.475Z,56.06
2023-03-20T08:19:30.944Z,56.17
2023-03-20T08:22:36.776Z,56.84
2023-03-20T08:25:47.785Z,63.47
2023-03-20T08:28:53.649Z,65.34
2023-03-20T08:31:59.048Z,63.49
2023-03-20T08:35:16.314Z,61.09
2023-03-20T08:38:30.113Z,59.71
2023-03-20T08:41:35.701Z,60.80
2023-03-20T08:44:41.312Z,61.93
2023-03-20T08:47:49.884Z,64.85
2023-03-20T08:50:57.949Z,63.71
2023-03-20T08:54:06.203Z,61.97
2023-03-20T08:57:12.047Z,59.86
2023-03-20T09:00:20.363Z,58.44
2023-03-20T09:03:31.871Z,59.94
2023-03-20T09:06:39.914Z,64.10
2023-03-20T09:09:47.955Z,63.28
2023-03-20T09:12:53.414Z,61.89
2023-03-20T09:15:59.401Z,60.32
2023-03-20T09:19:04.929Z,59.48
2023-03-20T09:22:15.350Z,58.70
2023-03-20T09:25:20.774Z,62.06
2023-03-20T09:28:27.190Z,63.96
2023-03-20T09:31:32.774Z,62.81
2023-03-20T09:34:40.427Z,58.58
2023-03-20T09:38:06.775Z,57.79
2023-03-20T09:41:17.824Z,62.23
2023-03-20T09:44:49.228Z,63.32
2023-03-20T09:48:03.599Z,60.67
2023-03-20T09:51:16.111Z,57.24
2023-03-20T09:54:27.040Z,58.78
2023-03-20T09:57:36.936Z,59.40
2023-03-20T10:00:43.993Z,61.48
2023-03-20T10:04:01.582Z,60.19
2023-03-20T10:07:20.514Z,59.59
2023-03-20T10:10:43.177Z,59.52
2023-03-20T10:14:05.897Z,60.95
2023-03-20T10:17:18.614Z,62.10
2023-03-20T10:20:31.313Z,60.15
2023-03-20T10:23:41.413Z,58.44
2023-03-20T10:26:51.938Z,59.21
2023-03-20T10:30:12.664Z,61.04
2023-03-20T10:33:26.967Z,61.68
2023-03-20T10:37:01.744Z,61.93
2023-03-20T10:41:46.252Z,62.43
2023-03-20T10:48:23.968Z,59.94
2023-03-20T10:51:42.595Z,61.39
2023-03-20T10:54:55.876Z,61.04
2023-03-20T10:58:16.793Z,60.89
2023-03-20T11:01:25.908Z,61.26
2023-03-20T11:04:45.047Z,62.24
2023-03-20T11:07:54.401Z,60.39
2023-03-20T11:11:06.915Z,57.25
2023-03-20T11:14:42.070Z,59.17
2023-03-20T11:17:53.100Z,60.16
2023-03-20T11:21:05.182Z,60.93
2023-03-20T11:24:21.367Z,60.60
2023-03-20T11:27:31.077Z,59.63
2023-03-20T11:31:04.118Z,59.83
2023-03-20T11:34:29.810Z,60.29
2023-03-20T11:37:36.470Z,60.42
2023-03-20T11:40:42.298Z,60.45
2023-03-20T11:43:58.888Z,60.15
2023-03-20T11:47:26.746Z,60.16
2023-03-20T11:50:53.535Z,59.57
2023-03-20T11:54:02.333Z,60.57
2023-03-20T11:57:27.696Z,60.52
2023-03-20T12:00:37.432Z,61.17
2023-03-20T12:04:06.112Z,61.21
2023-03-20T12:07:37.155Z,59.20
2023-03-20T12:10:44.707Z,57.51
2023-03-20T12:13:51.562Z,57.24
2023-03-20T12:17:28.793Z,56.35
2023-03-20T12:20:37.893Z,57.07
2023-03-20T12:23:48.899Z,56.67
2023-03-20T12:26:58.174Z,56.48
2023-03-20T12:30:05.428Z,56.73
2023-03-20T12:33:31.214Z,56.88
2023-03-20T12:36:43.907Z,56.80
2023-03-20T12:39:52.144Z,54.98
2023-03-20T12:43:03.787Z,55.16
2023-03-20T12:46:13.694Z,54.69
2023-03-20T12:49:30.949Z,54.39
2023-03-20T12:52:43.433Z,55.87
2023-03-20T12:55:56.822Z,54.20
2023-03-20T12:59:10.108Z,54.50
2023-03-20T13:02:21.479Z,54.65
2023-03-20T13:05:33.751Z,53.30
2023-03-20T13:08:59.525Z,52.57
2023-03-20T13:12:18.903Z,53.42
2023-03-20T13:15:32.845Z,52.96
2023-03-20T13:18:43.367Z,53.36
2023-03-20T13:21:56.747Z,53.98
2023-03-20T13:25:07.802Z,54.19
2023-03-20T13:28:16.633Z,54.87
2023-03-20T13:31:34.945Z,54.84
2023-03-20T13:35:05.376Z,54.07
2023-03-20T13:38:13.350Z,54.52
2023-03-20T13:41:20.217Z,54.80
2023-03-20T13:44:30.448Z,55.24
2023-03-20T13:47:37.374Z,52.94
2023-03-20T13:50:50.044Z,52.91
2023-03-20T13:54:08.532Z,52.98
2023-03-20T13:57:19.840Z,54.05
2023-03-20T14:00:37.519Z,54.79
2023-03-20T14:03:45.937Z,56.40
2023-03-20T14:06:55.130Z,58.65
2023-03-20T14:10:20.677Z,60.37
2023-03-20T14:13:28.066Z,61.16
2023-03-20T14:16:44.815Z,61.67
2023-03-20T14:19:53.982Z,62.41
2023-03-20T14:23:05.981Z,60.46
2023-03-20T14:26:20.445Z,59.43
2023-03-20T14:29:36.685Z,60.75
2023-03-20T14:32:59.684Z,62.18
2023-03-20T14:36:19.464Z,61.52
2023-03-20T14:39:36.180Z,58.86
2023-03-20T14:42:49.324Z,60.10
2023-03-20T14:46:12.522Z,61.48
2023-03-20T14:49:24.690Z,62.98
2023-03-20T14:52:43.874Z,63.35
2023-03-20T14:55:52.117Z,63.03
2023-03-20T14:59:03.808Z,62.76
2023-03-20T15:02:24.553Z,62.43
2023-03-20T15:05:31.552Z,62.80
2023-03-20T15:09:00.856Z,63.99
2023-03-20T15:12:27.556Z,62.86
2023-03-20T15:15:55.677Z,62.56
2023-03-20T15:19:18.589Z,62.69
2023-03-20T15:22:29.541Z,60.69
2023-03-20T15:25:47.035Z,61.38
2023-03-20T15:28:57.008Z,62.24
2023-03-20T15:32:25.210Z,61.50
2023-03-20T15:35:52.860Z,61.34
2023-03-20T15:39:18.295Z,60.80
2023-03-20T15:42:27.700Z,59.92
2023-03-20T15:45:38.868Z,60.60
2023-03-20T15:48:48.055Z,63.13
2023-03-20T15:52:17.751Z,62.62
2023-03-20T15:55:24.764Z,61.31
2023-03-20T15:58:32.274Z,61.50
2023-03-20T16:01:38.093Z,60.29
2023-03-20T16:04:46.855Z,60.39
2023-03-20T16:07:52.481Z,63.52
2023-03-20T16:10:59.860Z,62.69
2023-03-20T16:14:26.874Z,62.04
2023-03-20T16:17:36.227Z,61.84
2023-03-20T16:20:51.351Z,61.77
2023-03-20T16:24:18.413Z,61.08
2023-03-20T16:27:40.019Z,60.42
2023-03-20T16:31:11.695Z,60.11
2023-03-20T16:34:20.362Z,59.89
2023-03-20T16:37:27.465Z,62.99
2023-03-20T16:40:43.496Z,62.48
2023-03-20T16:43:50.724Z,61.21
2023-03-20T16:47:20.280Z,62.28
2023-03-20T16:50:47.899Z,62.23
2023-03-20T16:54:03.546Z,62.33
2023-03-20T16:57:15.901Z,61.34
2023-03-20T17:00:24.328Z,60.63
2023-03-20T17:03:49.810Z,59.31
2023-03-20T17:07:18.390Z,62.02
2023-03-20T17:10:39.511Z,64.81
2023-03-20T17:13:48.732Z,63.92
2023-03-20T17:16:55.534Z,62.75
2023-03-20T17:20:18.406Z,61.57
2023-03-20T17:23:26.404Z,60.55
2023-03-20T17:26:41.494Z,60.31
2023-03-20T17:29:47.552Z,59.39
2023-03-20T17:32:53.034Z,61.31
2023-03-20T17:36:01.791Z,63.16
2023-03-20T17:39:07.865Z,62.09
2023-03-20T17:42:24.596Z,60.60
2023-03-20T17:45:32.599Z,59.69
2023-03-20T17:48:59.712Z,60.23
2023-03-20T17:52:05.927Z,62.52
2023-03-20T17:55:20.407Z,63.98
2023-03-20T17:58:26.728Z,62.19
2023-03-20T18:01:35.056Z,60.76
2023-03-20T18:04:52.147Z,59.92
2023-03-20T18:08:00.598Z,59.51
2023-03-20T18:11:06.426Z,63.05
2023-03-20T18:14:23.491Z,62.64
2023-03-20T18:17:49.538Z,62.94
2023-03-20T18:21:17.537Z,62.67
2023-03-20T18:24:27.101Z,62.45
2023-03-20T18:27:52.906Z,61.39
2023-03-20T18:31:19.809Z,60.27
2023-03-20T18:34:36.777Z,59.69
2023-03-20T18:38:02.621Z,63.09
2023-03-20T18:41:11.739Z,63.27
2023-03-20T18:44:17.438Z,62.77
2023-03-20T18:47:23.475Z,61.20
2023-03-20T18:50:51.056Z,60.77
2023-03-20T18:53:56.644Z,60.31
2023-03-20T18:57:05.369Z,60.03
2023-03-20T19:00:23.286Z,62.83
2023-03-20T19:03:42.489Z,62.54
2023-03-20T19:06:53.405Z,62.23
2023-03-20T19:09:59.222Z,61.54
2023-03-20T19:13:18.511Z,60.43
2023-03-20T19:16:27.434Z,57.73
2023-03-20T19:19:33.265Z,55.98
2023-03-20T19:22:46.320Z,59.53
2023-03-20T19:25:55.204Z,64.27
2023-03-20T19:29:01.427Z,63.90
2023-03-20T19:32:09.534Z,63.59
2023-03-20T19:38:43.437Z,60.68
2023-03-20T19:42:09.610Z,62.44
2023-03-20T19:45:21.307Z,64.98
2023-03-20T19:48:50.759Z,63.84
2023-03-20T19:51:55.732Z,62.35
2023-03-20T19:55:03.385Z,61.11
2023-03-20T19:58:12.189Z,60.57
2023-03-20T20:01:21.886Z,58.84
2023-03-20T20:04:28.651Z,58.34
2023-03-20T20:11:02.744Z,61.85
2023-03-20T20:14:14.579Z,66.00
2023-03-20T20:17:33.730Z,67.12
2023-03-20T20:21:19.578Z,63.98
2023-03-20T20:24:21.600Z,62.86
2023-03-20T20:27:31.587Z,62.02
2023-03-20T20:30:42.764Z,61.27
2023-03-20T20:34:09.457Z,60.16
2023-03-20T20:41:04.607Z,56.26
2023-03-20T20:44:21.149Z,58.05
2023-03-20T20:47:26.658Z,58.91
2023-03-20T20:50:47.862Z,58.45
2023-03-20T20:53:55.474Z,60.12
2023-03-20T20:57:01.251Z,62.71
2023-03-20T21:00:09.270Z,68.44
2023-03-20T21:03:14.883Z,66.84
2023-03-20T21:06:20.505Z,66.06
2023-03-20T21:09:33.719Z,63.10
2023-03-20T21:12:52.150Z,61.22
2023-03-20T21:16:09.074Z,60.72
2023-03-20T21:19:36.066Z,59.55
2023-03-20T21:22:53.956Z,58.92
2023-03-20T21:26:00.047Z,63.15
2023-03-20T21:29:19.384Z,64.14
2023-03-20T21:32:25.076Z,62.16
2023-03-20T21:35:30.612Z,61.43
2023-03-20T21:42:01.601Z,59.95
2023-03-20T21:53:00.346Z,62.52
2023-03-20T22:02:44.840Z,57.33
2023-03-20T22:06:36.972Z,57.32
2023-03-20T22:10:03.346Z,57.43
2023-03-20T22:13:41.142Z,62.81
2023-03-20T22:17:22.046Z,66.17
2023-03-20T22:24:05.840Z,61.83
2023-03-20T22:27:54.052Z,60.84
2023-03-20T22:34:28.858Z,57.54
2023-03-20T22:37:56.169Z,57.60
2023-03-20T22:42:03.697Z,60.07
2023-03-20T22:47:56.809Z,65.65
2023-03-20T22:51:03.422Z,64.44
2023-03-20T22:54:09.536Z,61.85
2023-03-20T22:57:15.411Z,61.37
2023-03-20T23:00:21.429Z,60.28
2023-03-20T23:03:40.308Z,58.03
2023-03-20T23:06:47.374Z,58.67
2023-03-20T23:09:52.826Z,64.38
2023-03-20T23:13:02.007Z,65.34
2023-03-20T23:16:10.800Z,63.44
2023-03-20T23:19:18.942Z,62.77
2023-03-20T23:22:24.482Z,61.71
2023-03-20T23:25:41.190Z,61.63
2023-03-20T23:28:49.101Z,62.11
2023-03-20T23:31:57.943Z,62.34
2023-03-20T23:35:07.035Z,63.15
2023-03-20T23:38:15.012Z,62.73
2023-03-20T23:41:38.969Z,62.67
2023-03-20T23:44:56.336Z,62.04
2023-03-20T23:48:04.735Z,62.05
2023-03-20T23:51:13.057Z,62.43
2023-03-20T23:54:25.655Z,61.87
2023-03-20T23:57:33.676Z,62.47
